sensor_id;sensor_type;location;lat;lon;timestamp;P1;durP1;ratioP1;P2;durP2;ratioP2
21589;SDS011;10957;50.968;6.828;2023-01-13T00:04:17;2.10;;;2.00;;
21589;SDS011;10957;50.968;6.828;2023-01-13T00:09:19;2.38;;;2.28;;
21589;SDS011;10957;50.968;6.828;2023-01-13T00:14:20;2.40;;;2.30;;
21589;SDS011;10957;50.968;6.828;2023-01-13T00:19:21;2.20;;;2.10;;
21589;SDS011;10957;50.968;6.828;2023-01-13T00:24:23;2.20;;;2.10;;
21589;SDS011;10957;50.968;6.828;2023-01-13T00:29:24;2.30;;;2.20;;
21589;SDS011;10957;50.968;6.828;2023-01-13T00:34:25;2.40;;;2.30;;
21589;SDS011;10957;50.968;6.828;2023-01-13T00:39:26;2.20;;;2.10;;
21589;SDS011;10957;50.968;6.828;2023-01-13T00:44:28;2.22;;;2.13;;
21589;SDS011;10957;50.968;6.828;2023-01-13T00:49:29;2.20;;;2.10;;
21589;SDS011;10957;50.968;6.828;2023-01-13T00:54:30;2.20;;;2.10;;
21589;SDS011;10957;50.968;6.828;2023-01-13T00:59:31;3.03;;;2.92;;
21589;SDS011;10957;50.968;6.828;2023-01-13T01:04:33;2.20;;;2.10;;
21589;SDS011;10957;50.968;6.828;2023-01-13T01:09:34;2.30;;;2.20;;
21589;SDS011;10957;50.968;6.828;2023-01-13T01:14:35;2.40;;;2.30;;
21589;SDS011;10957;50.968;6.828;2023-01-13T01:19:36;2.45;;;2.35;;
21589;SDS011;10957;50.968;6.828;2023-01-13T01:24:38;2.70;;;2.60;;
21589;SDS011;10957;50.968;6.828;2023-01-13T01:29:39;3.70;;;3.60;;
21589;SDS011;10957;50.968;6.828;2023-01-13T01:34:40;3.70;;;3.60;;
21589;SDS011;10957;50.968;6.828;2023-01-13T01:39:41;4.30;;;4.10;;
21589;SDS011;10957;50.968;6.828;2023-01-13T01:49:56;4.80;;;4.60;;
21589;SDS011;10957;50.968;6.828;2023-01-13T02:00:05;4.30;;;4.10;;
21589;SDS011;10957;50.968;6.828;2023-01-13T02:05:12;4.20;;;4.00;;
21589;SDS011;10957;50.968;6.828;2023-01-13T02:10:15;3.80;;;3.70;;
21589;SDS011;10957;50.968;6.828;2023-01-13T02:15:37;4.30;;;4.10;;
21589;SDS011;10957;50.968;6.828;2023-01-13T02:26:04;3.80;;;3.70;;
21589;SDS011;10957;50.968;6.828;2023-01-13T02:31:29;3.60;;;3.50;;
21589;SDS011;10957;50.968;6.828;2023-01-13T02:36:47;3.40;;;3.30;;
21589;SDS011;10957;50.968;6.828;2023-01-13T02:42:01;3.80;;;3.70;;
21589;SDS011;10957;50.968;6.828;2023-01-13T02:47:27;3.78;;;3.67;;
21589;SDS011;10957;50.968;6.828;2023-01-13T02:57:36;3.97;;;3.80;;
21589;SDS011;10957;50.968;6.828;2023-01-13T03:02:39;4.10;;;3.90;;
21589;SDS011;10957;50.968;6.828;2023-01-13T03:13:20;4.25;;;4.05;;
21589;SDS011;10957;50.968;6.828;2023-01-13T03:23:55;3.88;;;3.78;;
21589;SDS011;10957;50.968;6.828;2023-01-13T03:29:05;4.72;;;4.53;;
21589;SDS011;10957;50.968;6.828;2023-01-13T03:34:14;4.47;;;4.28;;
21589;SDS011;10957;50.968;6.828;2023-01-13T03:39:23;4.40;;;4.20;;
21589;SDS011;10957;50.968;6.828;2023-01-13T03:44:33;4.40;;;4.20;;
21589;SDS011;10957;50.968;6.828;2023-01-13T03:49:54;4.60;;;4.40;;
21589;SDS011;10957;50.968;6.828;2023-01-13T03:55:09;4.30;;;4.10;;
21589;SDS011;10957;50.968;6.828;2023-01-13T04:00:13;4.65;;;4.45;;
21589;SDS011;10957;50.968;6.828;2023-01-13T04:05:16;4.38;;;4.18;;
21589;SDS011;10957;50.968;6.828;2023-01-13T04:10:22;6.22;;;5.70;;
21589;SDS011;10957;50.968;6.828;2023-01-13T04:15:29;4.90;;;4.70;;
21589;SDS011;10957;50.968;6.828;2023-01-13T04:20:33;5.20;;;5.00;;
21589;SDS011;10957;50.968;6.828;2023-01-13T04:25:35;5.10;;;4.90;;
21589;SDS011;10957;50.968;6.828;2023-01-13T04:30:36;6.97;;;6.68;;
21589;SDS011;10957;50.968;6.828;2023-01-13T04:35:38;5.30;;;5.10;;
21589;SDS011;10957;50.968;6.828;2023-01-13T04:40:40;4.68;;;4.47;;
21589;SDS011;10957;50.968;6.828;2023-01-13T04:45:42;6.00;;;5.70;;
21589;SDS011;10957;50.968;6.828;2023-01-13T04:50:43;5.15;;;4.95;;
21589;SDS011;10957;50.968;6.828;2023-01-13T04:55:44;6.65;;;6.25;;
21589;SDS011;10957;50.968;6.828;2023-01-13T05:00:48;6.35;;;5.82;;
21589;SDS011;10957;50.968;6.828;2023-01-13T05:05:50;5.30;;;5.10;;
21589;SDS011;10957;50.968;6.828;2023-01-13T05:10:51;5.60;;;5.40;;
21589;SDS011;10957;50.968;6.828;2023-01-13T05:15:53;5.30;;;5.10;;
21589;SDS011;10957;50.968;6.828;2023-01-13T05:21:12;5.60;;;5.40;;
21589;SDS011;10957;50.968;6.828;2023-01-13T05:26:33;6.05;;;5.75;;
21589;SDS011;10957;50.968;6.828;2023-01-13T05:31:35;5.47;;;5.28;;
21589;SDS011;10957;50.968;6.828;2023-01-13T05:36:36;6.15;;;5.85;;
21589;SDS011;10957;50.968;6.828;2023-01-13T05:41:37;6.00;;;5.70;;
21589;SDS011;10957;50.968;6.828;2023-01-13T05:46:57;5.60;;;5.40;;
21589;SDS011;10957;50.968;6.828;2023-01-13T05:51:58;5.50;;;5.30;;
21589;SDS011;10957;50.968;6.828;2023-01-13T05:56:59;5.82;;;5.53;;
21589;SDS011;10957;50.968;6.828;2023-01-13T06:02:00;5.88;;;5.57;;
21589;SDS011;10957;50.968;6.828;2023-01-13T06:07:01;6.25;;;5.95;;
21589;SDS011;10957;50.968;6.828;2023-01-13T06:12:02;6.00;;;5.70;;
21589;SDS011;10957;50.968;6.828;2023-01-13T06:17:11;6.28;;;5.97;;
21589;SDS011;10957;50.968;6.828;2023-01-13T06:22:18;6.20;;;5.90;;
21589;SDS011;10957;50.968;6.828;2023-01-13T06:27:23;6.20;;;5.90;;
21589;SDS011;10957;50.968;6.828;2023-01-13T06:32:26;6.18;;;5.88;;
21589;SDS011;10957;50.968;6.828;2023-01-13T06:37:32;5.95;;;5.65;;
21589;SDS011;10957;50.968;6.828;2023-01-13T06:42:34;6.07;;;5.78;;
21589;SDS011;10957;50.968;6.828;2023-01-13T06:47:55;5.90;;;5.60;;
21589;SDS011;10957;50.968;6.828;2023-01-13T06:52:59;6.00;;;5.70;;
21589;SDS011;10957;50.968;6.828;2023-01-13T06:58:00;5.43;;;5.22;;
21589;SDS011;10957;50.968;6.828;2023-01-13T07:03:14;5.53;;;5.32;;
21589;SDS011;10957;50.968;6.828;2023-01-13T07:08:16;5.50;;;5.30;;
21589;SDS011;10957;50.968;6.828;2023-01-13T07:13:17;5.20;;;5.00;;
21589;SDS011;10957;50.968;6.828;2023-01-13T07:18:37;7.32;;;6.93;;
21589;SDS011;10957;50.968;6.828;2023-01-13T07:23:39;5.60;;;5.40;;
21589;SDS011;10957;50.968;6.828;2023-01-13T07:28:41;5.43;;;5.22;;
21589;SDS011;10957;50.968;6.828;2023-01-13T07:33:42;5.30;;;5.10;;
21589;SDS011;10957;50.968;6.828;2023-01-13T07:38:44;5.57;;;5.38;;
21589;SDS011;10957;50.968;6.828;2023-01-13T07:43:45;5.65;;;5.45;;
21589;SDS011;10957;50.968;6.828;2023-01-13T07:48:48;5.40;;;5.20;;
21589;SDS011;10957;50.968;6.828;2023-01-13T07:53:49;5.30;;;5.10;;
21589;SDS011;10957;50.968;6.828;2023-01-13T07:58:50;5.40;;;5.20;;
21589;SDS011;10957;50.968;6.828;2023-01-13T08:03:53;5.20;;;5.00;;
21589;SDS011;10957;50.968;6.828;2023-01-13T08:08:55;5.18;;;4.97;;
21589;SDS011;10957;50.968;6.828;2023-01-13T08:13:57;5.10;;;4.90;;
21589;SDS011;10957;50.968;6.828;2023-01-13T08:18:59;5.20;;;5.00;;
21589;SDS011;10957;50.968;6.828;2023-01-13T08:24:00;5.20;;;5.00;;
21589;SDS011;10957;50.968;6.828;2023-01-13T08:29:08;4.97;;;4.78;;
21589;SDS011;10957;50.968;6.828;2023-01-13T08:34:09;5.10;;;4.90;;
21589;SDS011;10957;50.968;6.828;2023-01-13T08:39:11;5.20;;;5.00;;
21589;SDS011;10957;50.968;6.828;2023-01-13T08:44:12;4.93;;;4.72;;
21589;SDS011;10957;50.968;6.828;2023-01-13T08:49:14;4.80;;;4.60;;
21589;SDS011;10957;50.968;6.828;2023-01-13T08:54:16;5.50;;;5.30;;
21589;SDS011;10957;50.968;6.828;2023-01-13T08:59:18;5.00;;;4.80;;
21589;SDS011;10957;50.968;6.828;2023-01-13T09:04:22;5.43;;;5.22;;
21589;SDS011;10957;50.968;6.828;2023-01-13T09:09:25;5.30;;;5.10;;
21589;SDS011;10957;50.968;6.828;2023-01-13T09:14:28;5.00;;;4.80;;
21589;SDS011;10957;50.968;6.828;2023-01-13T09:19:30;8.38;;;6.03;;
21589;SDS011;10957;50.968;6.828;2023-01-13T09:24:32;6.55;;;6.13;;
21589;SDS011;10957;50.968;6.828;2023-01-13T09:29:33;5.30;;;5.10;;
21589;SDS011;10957;50.968;6.828;2023-01-13T09:34:34;5.43;;;5.22;;
21589;SDS011;10957;50.968;6.828;2023-01-13T09:39:54;5.68;;;5.47;;
21589;SDS011;10957;50.968;6.828;2023-01-13T09:45:01;5.35;;;5.15;;
21589;SDS011;10957;50.968;6.828;2023-01-13T09:50:14;5.90;;;5.60;;
21589;SDS011;10957;50.968;6.828;2023-01-13T09:55:24;6.28;;;5.97;;
21589;SDS011;10957;50.968;6.828;2023-01-13T10:00:38;5.60;;;5.40;;
21589;SDS011;10957;50.968;6.828;2023-01-13T10:05:58;5.28;;;5.07;;
21589;SDS011;10957;50.968;6.828;2023-01-13T10:11:16;5.43;;;5.20;;
21589;SDS011;10957;50.968;6.828;2023-01-13T10:16:43;5.40;;;5.20;;
21589;SDS011;10957;50.968;6.828;2023-01-13T10:21:51;7.93;;;6.88;;
21589;SDS011;10957;50.968;6.828;2023-01-13T10:27:03;6.00;;;5.70;;
21589;SDS011;10957;50.968;6.828;2023-01-13T10:32:23;5.75;;;5.45;;
21589;SDS011;10957;50.968;6.828;2023-01-13T10:37:26;5.75;;;5.53;;
21589;SDS011;10957;50.968;6.828;2023-01-13T10:42:27;6.00;;;5.70;;
21589;SDS011;10957;50.968;6.828;2023-01-13T10:47:33;6.00;;;5.70;;
21589;SDS011;10957;50.968;6.828;2023-01-13T10:52:36;5.95;;;5.65;;
21589;SDS011;10957;50.968;6.828;2023-01-13T10:57:42;6.40;;;6.10;;
21589;SDS011;10957;50.968;6.828;2023-01-13T11:02:43;6.20;;;5.90;;
21589;SDS011;10957;50.968;6.828;2023-01-13T11:07:45;6.00;;;5.70;;
21589;SDS011;10957;50.968;6.828;2023-01-13T11:18:20;6.10;;;5.80;;
21589;SDS011;10957;50.968;6.828;2023-01-13T11:23:55;7.15;;;6.55;;
21589;SDS011;10957;50.968;6.828;2023-01-13T11:29:19;5.90;;;5.60;;
21589;SDS011;10957;50.968;6.828;2023-01-13T11:34:46;6.38;;;6.07;;
21589;SDS011;10957;50.968;6.828;2023-01-13T11:55:45;6.72;;;6.43;;
21589;SDS011;10957;50.968;6.828;2023-01-13T12:06:38;6.38;;;6.07;;
21589;SDS011;10957;50.968;6.828;2023-01-13T12:22:40;5.50;;;5.30;;
21589;SDS011;10957;50.968;6.828;2023-01-13T12:27:55;5.93;;;5.63;;
21589;SDS011;10957;50.968;6.828;2023-01-13T12:33:05;5.70;;;5.50;;
21589;SDS011;10957;50.968;6.828;2023-01-13T12:43:43;5.38;;;5.18;;
21589;SDS011;10957;50.968;6.828;2023-01-13T12:49:06;5.90;;;5.60;;
21589;SDS011;10957;50.968;6.828;2023-01-13T12:59:36;5.70;;;5.47;;
21589;SDS011;10957;50.968;6.828;2023-01-13T13:09:48;4.80;;;4.60;;
21589;SDS011;10957;50.968;6.828;2023-01-13T13:19:56;4.55;;;4.35;;
21589;SDS011;10957;50.968;6.828;2023-01-13T13:30:00;4.10;;;3.90;;
21589;SDS011;10957;50.968;6.828;2023-01-13T13:40:23;4.28;;;4.07;;
21589;SDS011;10957;50.968;6.828;2023-01-13T13:45:50;3.72;;;3.63;;
21589;SDS011;10957;50.968;6.828;2023-01-13T13:51:20;4.10;;;3.90;;
21589;SDS011;10957;50.968;6.828;2023-01-13T13:56:37;4.00;;;3.80;;
21589;SDS011;10957;50.968;6.828;2023-01-13T14:01:43;4.07;;;3.88;;
21589;SDS011;10957;50.968;6.828;2023-01-13T14:06:50;7.57;;;5.05;;
21589;SDS011;10957;50.968;6.828;2023-01-13T14:11:56;3.88;;;3.78;;
21589;SDS011;10957;50.968;6.828;2023-01-13T14:17:02;4.20;;;4.00;;
21589;SDS011;10957;50.968;6.828;2023-01-13T14:22:04;3.90;;;3.78;;
21589;SDS011;10957;50.968;6.828;2023-01-13T14:27:06;5.53;;;5.22;;
21589;SDS011;10957;50.968;6.828;2023-01-13T14:32:09;4.65;;;4.45;;
21589;SDS011;10957;50.968;6.828;2023-01-13T14:37:21;5.88;;;5.35;;
21589;SDS011;10957;50.968;6.828;2023-01-13T14:42:23;4.60;;;4.40;;
21589;SDS011;10957;50.968;6.828;2023-01-13T14:47:28;4.70;;;4.50;;
21589;SDS011;10957;50.968;6.828;2023-01-13T14:52:33;4.50;;;4.30;;
21589;SDS011;10957;50.968;6.828;2023-01-13T14:57:37;4.95;;;4.75;;
21589;SDS011;10957;50.968;6.828;2023-01-13T15:13:21;4.65;;;4.45;;
21589;SDS011;10957;50.968;6.828;2023-01-13T15:18:31;4.90;;;4.70;;
21589;SDS011;10957;50.968;6.828;2023-01-13T15:23:35;5.55;;;5.28;;
21589;SDS011;10957;50.968;6.828;2023-01-13T15:28:37;5.38;;;5.13;;
21589;SDS011;10957;50.968;6.828;2023-01-13T15:33:38;5.07;;;4.78;;
21589;SDS011;10957;50.968;6.828;2023-01-13T15:38:39;4.90;;;4.70;;
21589;SDS011;10957;50.968;6.828;2023-01-13T15:43:41;4.80;;;4.60;;
21589;SDS011;10957;50.968;6.828;2023-01-13T15:49:01;2.63;;;2.42;;
21589;SDS011;10957;50.968;6.828;2023-01-13T15:54:09;2.20;;;2.10;;
21589;SDS011;10957;50.968;6.828;2023-01-13T15:59:15;2.08;;;1.98;;
21589;SDS011;10957;50.968;6.828;2023-01-13T16:04:19;2.00;;;1.90;;
21589;SDS011;10957;50.968;6.828;2023-01-13T16:09:20;2.05;;;1.95;;
21589;SDS011;10957;50.968;6.828;2023-01-13T16:14:21;2.10;;;2.00;;
21589;SDS011;10957;50.968;6.828;2023-01-13T16:19:22;1.75;;;1.75;;
21589;SDS011;10957;50.968;6.828;2023-01-13T16:24:25;2.67;;;2.58;;
21589;SDS011;10957;50.968;6.828;2023-01-13T16:29:26;3.22;;;3.05;;
21589;SDS011;10957;50.968;6.828;2023-01-13T16:34:27;2.78;;;2.67;;
21589;SDS011;10957;50.968;6.828;2023-01-13T16:39:28;2.05;;;1.95;;
21589;SDS011;10957;50.968;6.828;2023-01-13T16:44:30;3.63;;;3.42;;
21589;SDS011;10957;50.968;6.828;2023-01-13T16:49:32;2.40;;;2.30;;
21589;SDS011;10957;50.968;6.828;2023-01-13T16:54:34;2.35;;;2.25;;
21589;SDS011;10957;50.968;6.828;2023-01-13T16:59:35;3.05;;;2.72;;
21589;SDS011;10957;50.968;6.828;2023-01-13T17:04:36;3.55;;;3.33;;
21589;SDS011;10957;50.968;6.828;2023-01-13T17:09:37;3.55;;;3.22;;
21589;SDS011;10957;50.968;6.828;2023-01-13T17:14:39;2.50;;;2.40;;
21589;SDS011;10957;50.968;6.828;2023-01-13T17:19:42;2.50;;;2.40;;
21589;SDS011;10957;50.968;6.828;2023-01-13T17:24:43;2.70;;;2.60;;
21589;SDS011;10957;50.968;6.828;2023-01-13T17:29:45;2.65;;;2.55;;
21589;SDS011;10957;50.968;6.828;2023-01-13T17:34:47;2.40;;;2.30;;
21589;SDS011;10957;50.968;6.828;2023-01-13T17:39:49;2.70;;;2.60;;
21589;SDS011;10957;50.968;6.828;2023-01-13T17:44:50;2.30;;;2.20;;
21589;SDS011;10957;50.968;6.828;2023-01-13T17:49:51;2.30;;;2.20;;
21589;SDS011;10957;50.968;6.828;2023-01-13T17:54:53;2.50;;;2.40;;
21589;SDS011;10957;50.968;6.828;2023-01-13T17:59:54;2.35;;;2.25;;
21589;SDS011;10957;50.968;6.828;2023-01-13T18:04:57;2.90;;;2.80;;
21589;SDS011;10957;50.968;6.828;2023-01-13T18:09:59;2.97;;;2.88;;
21589;SDS011;10957;50.968;6.828;2023-01-13T18:15:00;2.50;;;2.40;;
21589;SDS011;10957;50.968;6.828;2023-01-13T18:20:01;3.95;;;3.50;;
21589;SDS011;10957;50.968;6.828;2023-01-13T18:25:21;5.90;;;3.03;;
21589;SDS011;10957;50.968;6.828;2023-01-13T18:30:41;2.50;;;2.40;;
21589;SDS011;10957;50.968;6.828;2023-01-13T18:35:42;3.42;;;3.22;;
21589;SDS011;10957;50.968;6.828;2023-01-13T18:40:43;2.53;;;2.42;;
21589;SDS011;10957;50.968;6.828;2023-01-13T18:45:47;3.53;;;3.33;;
21589;SDS011;10957;50.968;6.828;2023-01-13T18:50:49;5.78;;;3.65;;
21589;SDS011;10957;50.968;6.828;2023-01-13T18:55:51;2.90;;;2.80;;
21589;SDS011;10957;50.968;6.828;2023-01-13T19:00:59;2.67;;;2.58;;
21589;SDS011;10957;50.968;6.828;2023-01-13T19:06:04;2.90;;;2.80;;
21589;SDS011;10957;50.968;6.828;2023-01-13T19:11:11;4.00;;;3.78;;
21589;SDS011;10957;50.968;6.828;2023-01-13T19:16:12;4.47;;;4.18;;
21589;SDS011;10957;50.968;6.828;2023-01-13T19:21:14;2.75;;;2.65;;
21589;SDS011;10957;50.968;6.828;2023-01-13T19:26:15;2.70;;;2.60;;
21589;SDS011;10957;50.968;6.828;2023-01-13T19:31:16;6.13;;;4.25;;
21589;SDS011;10957;50.968;6.828;2023-01-13T19:36:20;2.72;;;2.63;;
21589;SDS011;10957;50.968;6.828;2023-01-13T19:41:21;2.75;;;2.65;;
21589;SDS011;10957;50.968;6.828;2023-01-13T19:46:40;2.78;;;2.67;;
21589;SDS011;10957;50.968;6.828;2023-01-13T19:51:42;4.22;;;2.70;;
21589;SDS011;10957;50.968;6.828;2023-01-13T19:56:43;2.60;;;2.50;;
21589;SDS011;10957;50.968;6.828;2023-01-13T20:01:44;2.67;;;2.58;;
21589;SDS011;10957;50.968;6.828;2023-01-13T20:06:45;2.10;;;2.00;;
21589;SDS011;10957;50.968;6.828;2023-01-13T20:11:49;2.38;;;2.28;;
21589;SDS011;10957;50.968;6.828;2023-01-13T20:16:53;2.20;;;2.10;;
21589;SDS011;10957;50.968;6.828;2023-01-13T20:21:55;2.53;;;2.33;;
21589;SDS011;10957;50.968;6.828;2023-01-13T20:26:56;2.10;;;2.00;;
21589;SDS011;10957;50.968;6.828;2023-01-13T20:31:57;2.00;;;1.90;;
21589;SDS011;10957;50.968;6.828;2023-01-13T20:36:59;2.00;;;1.90;;
21589;SDS011;10957;50.968;6.828;2023-01-13T20:42:00;3.00;;;2.17;;
21589;SDS011;10957;50.968;6.828;2023-01-13T20:47:39;2.00;;;1.90;;
21589;SDS011;10957;50.968;6.828;2023-01-13T20:52:41;1.95;;;1.88;;
21589;SDS011;10957;50.968;6.828;2023-01-13T20:57:42;1.90;;;1.88;;
21589;SDS011;10957;50.968;6.828;2023-01-13T21:02:47;1.50;;;1.50;;
21589;SDS011;10957;50.968;6.828;2023-01-13T21:07:49;2.22;;;2.13;;
21589;SDS011;10957;50.968;6.828;2023-01-13T21:12:50;1.80;;;1.75;;
21589;SDS011;10957;50.968;6.828;2023-01-13T21:18:10;1.77;;;1.77;;
21589;SDS011;10957;50.968;6.828;2023-01-13T21:23:29;1.75;;;1.75;;
21589;SDS011;10957;50.968;6.828;2023-01-13T21:28:31;1.52;;;1.52;;
21589;SDS011;10957;50.968;6.828;2023-01-13T21:33:34;1.55;;;1.55;;
21589;SDS011;10957;50.968;6.828;2023-01-13T21:38:35;1.60;;;1.60;;
21589;SDS011;10957;50.968;6.828;2023-01-13T21:43:37;1.80;;;1.80;;
21589;SDS011;10957;50.968;6.828;2023-01-13T21:48:56;1.83;;;1.80;;
21589;SDS011;10957;50.968;6.828;2023-01-13T21:53:58;1.95;;;1.88;;
21589;SDS011;10957;50.968;6.828;2023-01-13T21:58:59;1.70;;;1.70;;
21589;SDS011;10957;50.968;6.828;2023-01-13T22:04:00;1.95;;;1.88;;
21589;SDS011;10957;50.968;6.828;2023-01-13T22:09:13;1.83;;;1.80;;
21589;SDS011;10957;50.968;6.828;2023-01-13T22:14:15;4.30;;;4.10;;
21589;SDS011;10957;50.968;6.828;2023-01-13T22:19:16;4.03;;;3.83;;
21589;SDS011;10957;50.968;6.828;2023-01-13T22:24:19;4.30;;;4.10;;
21589;SDS011;10957;50.968;6.828;2023-01-13T22:29:20;4.45;;;4.25;;
21589;SDS011;10957;50.968;6.828;2023-01-13T22:34:22;4.30;;;4.10;;
21589;SDS011;10957;50.968;6.828;2023-01-13T22:39:23;4.20;;;4.00;;
21589;SDS011;10957;50.968;6.828;2023-01-13T22:44:25;4.22;;;4.03;;
21589;SDS011;10957;50.968;6.828;2023-01-13T22:49:26;4.20;;;4.00;;
21589;SDS011;10957;50.968;6.828;2023-01-13T22:54:27;5.80;;;5.35;;
21589;SDS011;10957;50.968;6.828;2023-01-13T22:59:29;5.05;;;4.85;;
21589;SDS011;10957;50.968;6.828;2023-01-13T23:04:31;3.90;;;3.80;;
21589;SDS011;10957;50.968;6.828;2023-01-13T23:09:33;4.40;;;4.20;;
21589;SDS011;10957;50.968;6.828;2023-01-13T23:14:34;4.32;;;4.13;;
21589;SDS011;10957;50.968;6.828;2023-01-13T23:19:36;4.25;;;4.05;;
21589;SDS011;10957;50.968;6.828;2023-01-13T23:24:37;4.40;;;4.20;;
21589;SDS011;10957;50.968;6.828;2023-01-13T23:29:38;5.18;;;4.88;;
21589;SDS011;10957;50.968;6.828;2023-01-13T23:34:39;4.30;;;4.10;;
21589;SDS011;10957;50.968;6.828;2023-01-13T23:39:41;4.40;;;4.20;;
21589;SDS011;10957;50.968;6.828;2023-01-13T23:44:43;3.92;;;3.80;;
21589;SDS011;10957;50.968;6.828;2023-01-13T23:49:45;4.50;;;4.30;;
21589;SDS011;10957;50.968;6.828;2023-01-13T23:54:46;5.05;;;4.80;;
21589;SDS011;10957;50.968;6.828;2023-01-13T23:59:47;4.40;;;4.20;;
